createdAt,value
2022-08-11T00:01:54.102Z,3.17
2022-08-11T00:05:07.715Z,3.30
2022-08-11T00:08:15.181Z,4.20
2022-08-11T00:11:26.997Z,3.60
2022-08-11T00:14:38.083Z,3.90
2022-08-11T00:17:47.054Z,2.80
2022-08-11T00:20:55.085Z,3.63
2022-08-11T00:24:06.092Z,4.60
2022-08-11T00:27:14.254Z,2.77
2022-08-11T00:30:24.011Z,3.07
2022-08-11T00:33:41.103Z,4.10
2022-08-11T00:36:55.984Z,5.23
2022-08-11T00:40:03.444Z,4.53
2022-08-11T00:43:21.058Z,3.43
2022-08-11T00:46:41.112Z,3.60
2022-08-11T00:50:03.045Z,4.53
2022-08-11T00:53:34.219Z,3.77
2022-08-11T00:57:36.726Z,3.87
2022-08-11T01:01:11.670Z,3.00
2022-08-11T01:04:55.877Z,3.13
2022-08-11T01:08:53.295Z,2.97
2022-08-11T01:12:44.029Z,4.37
2022-08-11T01:16:18.595Z,4.57
2022-08-11T01:20:45.867Z,3.70
2022-08-11T01:24:07.793Z,5.53
2022-08-11T01:27:27.369Z,3.77
2022-08-11T01:31:27.307Z,3.53
2022-08-11T01:35:15.979Z,3.90
2022-08-11T01:38:55.888Z,5.43
2022-08-11T01:43:16.784Z,5.10
2022-08-11T01:46:29.979Z,3.80
2022-08-11T01:50:09.877Z,4.57
2022-08-11T01:53:30.308Z,3.00
2022-08-11T01:56:45.544Z,3.63
2022-08-11T02:00:09.293Z,2.63
2022-08-11T02:03:22.072Z,3.30
2022-08-11T02:06:58.599Z,3.10
2022-08-11T02:10:36.625Z,4.00
2022-08-11T02:13:50.923Z,3.90
2022-08-11T02:17:14.719Z,5.93
2022-08-11T02:20:41.095Z,4.83
2022-08-11T02:24:06.943Z,3.50
2022-08-11T02:27:23.456Z,3.80
2022-08-11T02:30:35.624Z,3.43
2022-08-11T02:33:43.890Z,3.53
2022-08-11T02:37:06.398Z,4.07
2022-08-11T02:40:22.525Z,4.13
2022-08-11T02:43:38.201Z,4.23
2022-08-11T02:47:00.195Z,6.27
2022-08-11T02:50:21.069Z,5.00
2022-08-11T02:53:35.579Z,3.97
2022-08-11T02:56:52.487Z,4.10
2022-08-11T03:00:08.205Z,3.67
2022-08-11T03:03:26.482Z,5.40
2022-08-11T03:06:48.559Z,5.37
2022-08-11T03:09:59.391Z,5.07
2022-08-11T03:13:33.692Z,5.13
2022-08-11T03:16:49.752Z,5.07
2022-08-11T03:20:07.915Z,4.77
2022-08-11T03:23:27.512Z,4.17
2022-08-11T03:26:46.382Z,5.40
2022-08-11T03:30:07.959Z,4.33
2022-08-11T03:33:40.871Z,4.53
2022-08-11T03:37:34.576Z,5.57
2022-08-11T03:42:01.855Z,4.40
2022-08-11T03:45:03.404Z,5.07
2022-08-11T03:48:22.839Z,4.53
2022-08-11T03:51:44.832Z,6.67
2022-08-11T03:55:07.786Z,4.33
2022-08-11T03:58:46.839Z,5.10
2022-08-11T04:02:12.606Z,5.13
2022-08-11T04:05:48.214Z,3.83
2022-08-11T04:09:27.093Z,6.07
2022-08-11T04:13:13.223Z,7.37
2022-08-11T04:16:41.841Z,4.50
2022-08-11T04:20:22.809Z,5.07
2022-08-11T04:24:34.929Z,4.60
2022-08-11T04:28:03.305Z,3.83
2022-08-11T04:31:51.779Z,3.70
2022-08-11T04:35:47.344Z,4.67
2022-08-11T04:39:23.415Z,4.57
2022-08-11T04:43:23.998Z,5.30
2022-08-11T04:47:03.085Z,5.73
2022-08-11T04:51:03.245Z,5.27
2022-08-11T04:54:45.599Z,5.40
2022-08-11T04:58:33.700Z,4.47
2022-08-11T05:01:58.790Z,7.03
2022-08-11T05:05:35.733Z,4.23
2022-08-11T05:09:13.532Z,5.93
2022-08-11T05:12:45.284Z,5.57
2022-08-11T05:16:12.083Z,6.73
2022-08-11T05:19:44.219Z,8.73
2022-08-11T05:23:09.713Z,6.33
2022-08-11T05:26:47.207Z,7.03
2022-08-11T05:30:21.959Z,6.07
2022-08-11T05:33:52.368Z,6.27
2022-08-11T05:37:25.794Z,8.67
2022-08-11T05:40:51.479Z,11.67
2022-08-11T05:44:21.829Z,10.73
2022-08-11T05:47:46.873Z,8.30
2022-08-11T05:51:11.766Z,9.50
2022-08-11T05:54:39.162Z,10.07
2022-08-11T05:57:51.415Z,11.07
2022-08-11T06:00:59.469Z,10.60
2022-08-11T06:04:19.909Z,13.17
2022-08-11T06:07:47.219Z,13.73
2022-08-11T06:11:03.118Z,17.97
2022-08-11T06:14:10.974Z,11.73
2022-08-11T06:17:25.322Z,11.80
2022-08-11T06:20:37.745Z,14.03
2022-08-11T06:23:46.548Z,16.07
2022-08-11T06:27:11.814Z,11.80
2022-08-11T06:30:19.670Z,14.20
2022-08-11T06:33:39.867Z,14.80
2022-08-11T06:36:59.110Z,12.70
2022-08-11T06:40:10.545Z,11.40
2022-08-11T06:43:23.711Z,14.87
2022-08-11T06:46:33.892Z,14.47
2022-08-11T06:50:03.319Z,14.43
2022-08-11T06:53:13.645Z,18.73
2022-08-11T06:56:43.954Z,16.87
2022-08-11T07:00:07.485Z,17.60
2022-08-11T07:03:19.342Z,21.50
2022-08-11T07:06:41.737Z,17.00
2022-08-11T07:10:51.403Z,19.73
2022-08-11T07:14:38.199Z,15.23
2022-08-11T07:18:10.237Z,17.93
2022-08-11T07:22:01.279Z,13.90
2022-08-11T07:25:22.166Z,13.83
2022-08-11T07:28:48.601Z,13.77
2022-08-11T07:32:03.664Z,15.47
2022-08-11T07:35:14.217Z,11.33
2022-08-11T07:38:43.416Z,12.73
2022-08-11T07:41:57.401Z,13.10
2022-08-11T07:45:25.175Z,11.17
2022-08-11T07:48:47.634Z,13.67
2022-08-11T07:52:12.112Z,9.07
2022-08-11T07:55:20.423Z,9.30
2022-08-11T07:59:07.463Z,10.27
2022-08-11T08:02:33.184Z,8.47
2022-08-11T08:05:56.820Z,8.13
2022-08-11T08:09:19.020Z,8.33
2022-08-11T08:12:44.140Z,8.13
2022-08-11T08:16:06.466Z,6.27
2022-08-11T08:19:19.320Z,6.70
2022-08-11T08:22:38.040Z,5.67
2022-08-11T08:25:48.721Z,7.03
2022-08-11T08:28:55.419Z,2.63
2022-08-11T08:32:03.510Z,3.72
2022-08-11T08:35:14.645Z,3.93
2022-08-11T08:38:22.806Z,2.53
2022-08-11T08:41:32.708Z,5.63
2022-08-11T08:44:44.908Z,4.50
2022-08-11T08:47:58.235Z,4.57
2022-08-11T08:52:02.594Z,2.57
2022-08-11T08:54:59.393Z,2.20
2022-08-11T08:58:06.668Z,3.53
2022-08-11T09:01:14.745Z,4.87
2022-08-11T09:04:23.025Z,4.82
2022-08-11T09:07:39.393Z,2.00
2022-08-11T09:11:13.750Z,1.90
2022-08-11T09:14:21.192Z,3.00
2022-08-11T09:17:30.135Z,2.47
2022-08-11T09:20:39.426Z,2.17
2022-08-11T09:24:08.425Z,1.80
2022-08-11T09:27:18.485Z,2.20
2022-08-11T09:30:27.633Z,2.55
2022-08-11T09:33:36.470Z,2.00
2022-08-11T09:37:03.026Z,1.77
2022-08-11T09:40:34.871Z,3.22
2022-08-11T09:44:04.260Z,3.63
2022-08-11T09:47:15.902Z,2.60
2022-08-11T09:50:23.149Z,3.33
2022-08-11T09:53:36.756Z,3.80
2022-08-11T09:57:06.774Z,2.47
2022-08-11T10:00:16.226Z,4.55
2022-08-11T10:03:38.249Z,2.55
2022-08-11T10:07:10.049Z,2.15
2022-08-11T10:10:17.265Z,3.88
2022-08-11T10:14:12.424Z,4.45
2022-08-11T10:16:59.325Z,5.50
2022-08-11T10:20:09.641Z,2.25
2022-08-11T10:24:00.417Z,2.50
2022-08-11T10:27:08.688Z,3.05
2022-08-11T10:30:37.172Z,2.33
2022-08-11T10:34:04.436Z,3.60
2022-08-11T10:37:14.968Z,2.45
2022-08-11T10:40:24.757Z,2.25
2022-08-11T10:44:01.258Z,2.45
2022-08-11T10:47:14.074Z,4.32
2022-08-11T10:50:36.486Z,2.38
2022-08-11T10:54:01.213Z,2.35
2022-08-11T10:57:24.420Z,1.67
2022-08-11T11:00:31.433Z,4.32
2022-08-11T11:03:41.935Z,4.13
2022-08-11T11:06:55.139Z,1.77
2022-08-11T11:10:06.877Z,2.58
2022-08-11T11:13:28.889Z,1.77
2022-08-11T11:16:52.319Z,1.80
2022-08-11T11:20:03.363Z,1.85
2022-08-11T11:23:16.929Z,1.55
2022-08-11T11:26:41.645Z,1.38
2022-08-11T11:30:00.152Z,2.22
2022-08-11T11:33:14.746Z,1.58
2022-08-11T11:36:32.422Z,2.65
2022-08-11T11:39:39.888Z,1.83
2022-08-11T11:42:48.957Z,1.30
2022-08-11T11:45:55.681Z,1.63
2022-08-11T11:49:15.312Z,1.30
2022-08-11T11:52:27.439Z,1.30
2022-08-11T11:55:35.362Z,1.70
2022-08-11T11:58:59.148Z,1.63
2022-08-11T12:02:11.897Z,2.65
2022-08-11T12:05:18.839Z,2.25
2022-08-11T12:08:30.055Z,3.60
2022-08-11T12:11:51.930Z,3.13
2022-08-11T12:14:59.307Z,1.52
2022-08-11T12:18:08.084Z,1.95
2022-08-11T12:21:18.640Z,3.42
2022-08-11T12:24:43.503Z,2.75
2022-08-11T12:27:50.763Z,1.40
2022-08-11T12:30:57.725Z,1.35
2022-08-11T12:34:06.528Z,2.00
2022-08-11T12:37:14.119Z,1.35
2022-08-11T12:41:11.858Z,2.17
2022-08-11T12:44:37.225Z,1.48
2022-08-11T12:48:07.643Z,1.52
2022-08-11T12:52:11.160Z,2.42
2022-08-11T12:55:35.525Z,2.67
2022-08-11T12:58:43.326Z,1.77
2022-08-11T13:02:06.236Z,4.05
2022-08-11T13:05:17.139Z,1.10
2022-08-11T13:08:26.375Z,2.45
2022-08-11T13:11:56.020Z,2.22
2022-08-11T13:15:08.147Z,2.05
2022-08-11T13:18:18.311Z,0.93
2022-08-11T13:21:26.329Z,1.40
2022-08-11T13:24:34.374Z,1.73
2022-08-11T13:27:41.650Z,2.85
2022-08-11T13:31:07.971Z,2.00
2022-08-11T13:34:15.556Z,1.58
2022-08-11T13:38:18.410Z,1.00
2022-08-11T13:40:55.956Z,2.40
2022-08-11T13:44:03.586Z,1.38
2022-08-11T14:04:28.915Z,18.73
2022-08-11T14:07:08.406Z,10.40
2022-08-11T14:10:16.211Z,19.25
2022-08-11T14:13:42.215Z,8.43
2022-08-11T14:16:55.653Z,6.03
2022-08-11T14:20:38.738Z,3.07
2022-08-11T14:23:36.128Z,3.97
2022-08-11T14:26:45.494Z,5.53
2022-08-11T14:29:51.500Z,2.23
2022-08-11T14:33:00.378Z,2.70
2022-08-11T14:36:27.066Z,3.77
2022-08-11T14:39:41.527Z,2.63
2022-08-11T14:43:03.859Z,3.67
2022-08-11T14:46:26.956Z,2.00
2022-08-11T14:49:35.147Z,3.20
2022-08-11T14:52:51.419Z,1.80
2022-08-11T14:56:13.819Z,2.13
2022-08-11T14:59:20.883Z,3.13
2022-08-11T15:02:43.044Z,2.47
2022-08-11T15:05:56.177Z,1.93
2022-08-11T15:09:09.264Z,4.00
2022-08-11T15:12:33.305Z,2.70
2022-08-11T15:15:55.921Z,1.73
2022-08-11T15:19:03.382Z,1.70
2022-08-11T15:22:28.083Z,1.67
2022-08-11T15:25:39.193Z,3.43
2022-08-11T15:29:09.562Z,2.00
2022-08-11T15:32:33.462Z,1.90
2022-08-11T15:35:56.891Z,3.67
2022-08-11T15:39:07.624Z,2.30
2022-08-11T15:42:36.453Z,4.38
2022-08-11T15:45:51.070Z,2.25
2022-08-11T15:49:03.084Z,4.15
2022-08-11T15:52:13.251Z,2.08
2022-08-11T15:55:20.828Z,4.10
2022-08-11T15:59:10.610Z,2.13
2022-08-11T16:02:36.159Z,2.53
2022-08-11T16:05:45.651Z,1.55
2022-08-11T16:08:56.646Z,1.80
2022-08-11T16:12:06.366Z,4.90
2022-08-11T16:15:31.212Z,1.33
2022-08-11T16:18:44.688Z,2.55
2022-08-11T16:21:54.713Z,3.05
2022-08-11T16:27:04.428Z,1.75
2022-08-11T16:28:32.723Z,5.28
2022-08-11T16:32:05.069Z,2.10
2022-08-11T16:35:29.901Z,3.35
2022-08-11T16:38:40.273Z,3.70
2022-08-11T16:42:03.462Z,4.18
2022-08-11T16:45:26.137Z,3.45
2022-08-11T16:48:38.758Z,3.20
2022-08-11T16:51:45.997Z,2.92
2022-08-11T16:54:53.024Z,5.55
2022-08-11T16:58:17.346Z,6.95
2022-08-11T17:01:26.009Z,4.10
2022-08-11T17:04:58.466Z,5.43
2022-08-11T17:08:22.809Z,6.65
2022-08-11T17:11:50.337Z,4.15
2022-08-11T17:15:00.621Z,4.75
2022-08-11T17:18:10.582Z,4.22
2022-08-11T17:21:23.189Z,3.33
2022-08-11T17:24:28.294Z,4.20
2022-08-11T17:27:36.559Z,3.35
2022-08-11T17:31:01.274Z,5.32
2022-08-11T17:34:25.210Z,3.33
2022-08-11T17:37:37.409Z,3.60
2022-08-11T17:41:09.045Z,3.30
2022-08-11T17:44:32.953Z,3.87
2022-08-11T17:47:55.320Z,3.90
2022-08-11T17:51:06.195Z,2.53
2022-08-11T17:54:31.127Z,2.60
2022-08-11T17:57:55.053Z,3.80
2022-08-11T18:01:08.690Z,3.37
2022-08-11T18:04:19.081Z,2.10
2022-08-11T18:07:42.717Z,2.30
2022-08-11T18:11:08.810Z,3.23
2022-08-11T18:14:33.266Z,2.60
2022-08-11T18:17:56.616Z,3.13
2022-08-11T18:21:18.497Z,4.70
2022-08-11T18:24:44.185Z,5.07
2022-08-11T18:28:13.266Z,3.07
2022-08-11T18:31:37.188Z,3.20
2022-08-11T18:35:00.715Z,5.47
2022-08-11T18:38:27.940Z,4.37
2022-08-11T18:41:57.555Z,4.57
2022-08-11T18:45:27.958Z,6.03
2022-08-11T18:48:55.285Z,4.80
2022-08-11T18:52:18.979Z,5.73
2022-08-11T18:55:42.449Z,5.60
2022-08-11T18:59:06.817Z,5.53
2022-08-11T19:02:33.554Z,3.30
2022-08-11T19:06:39.945Z,3.40
2022-08-11T19:09:58.980Z,3.40
2022-08-11T19:13:23.228Z,2.63
2022-08-11T19:16:46.148Z,3.40
2022-08-11T19:20:14.323Z,3.47
2022-08-11T19:23:39.849Z,3.53
2022-08-11T19:27:03.590Z,4.50
2022-08-11T19:30:26.085Z,2.87
2022-08-11T19:34:02.890Z,3.00
2022-08-11T19:37:35.701Z,4.37
2022-08-11T19:41:07.492Z,3.53
2022-08-11T19:44:31.145Z,4.07
2022-08-11T19:48:14.101Z,4.40
2022-08-11T19:51:39.184Z,3.13
2022-08-11T19:55:05.120Z,3.57
2022-08-11T19:58:27.197Z,4.80
2022-08-11T20:02:01.394Z,4.07
2022-08-11T20:05:32.103Z,4.17
2022-08-11T20:08:58.811Z,4.13
2022-08-11T20:12:24.715Z,3.83
2022-08-11T20:15:47.976Z,3.90
2022-08-11T20:19:11.588Z,6.50
2022-08-11T20:22:35.876Z,4.57
2022-08-11T20:26:13.998Z,4.70
2022-08-11T20:29:44.494Z,6.00
2022-08-11T20:33:08.813Z,6.73
2022-08-11T20:36:34.479Z,4.43
2022-08-11T20:39:58.096Z,5.43
2022-08-11T20:44:05.677Z,5.53
2022-08-11T20:47:13.160Z,6.70
2022-08-11T20:50:37.234Z,4.73
2022-08-11T20:54:05.698Z,6.77
2022-08-11T20:57:54.401Z,6.87
2022-08-11T21:01:20.559Z,6.30
2022-08-11T21:05:00.206Z,4.13
2022-08-11T21:08:25.952Z,4.87
2022-08-11T21:11:49.857Z,6.23
2022-08-11T21:15:15.697Z,4.97
2022-08-11T21:18:59.617Z,4.90
2022-08-11T21:22:31.013Z,4.67
2022-08-11T21:25:59.367Z,5.73
2022-08-11T21:29:26.104Z,6.40
2022-08-11T21:32:50.531Z,6.50
2022-08-11T21:36:12.974Z,6.00
2022-08-11T21:39:41.322Z,7.57
2022-08-11T21:43:05.873Z,4.80
2022-08-11T21:46:29.418Z,4.93
2022-08-11T21:49:58.504Z,5.90
2022-08-11T21:53:21.399Z,6.20
2022-08-11T21:56:47.296Z,6.20
2022-08-11T22:00:12.180Z,7.07
2022-08-11T22:03:41.129Z,5.83
2022-08-11T22:07:14.216Z,5.33
2022-08-11T22:10:42.125Z,8.57
2022-08-11T22:14:08.390Z,4.97
2022-08-11T22:17:29.916Z,5.83
2022-08-11T22:20:53.690Z,7.70
2022-08-11T22:24:18.393Z,6.67
2022-08-11T22:27:53.632Z,8.33
2022-08-11T22:31:21.953Z,11.77
2022-08-11T22:34:52.559Z,10.50
2022-08-11T22:38:17.692Z,7.40
2022-08-11T22:41:40.654Z,9.33
2022-08-11T22:45:03.333Z,7.80
2022-08-11T22:48:29.683Z,8.77
2022-08-11T22:51:53.649Z,6.47
2022-08-11T22:55:18.029Z,5.40
2022-08-11T22:58:41.149Z,6.50
2022-08-11T23:02:04.211Z,4.90
2022-08-11T23:05:29.569Z,5.53
2022-08-11T23:08:52.895Z,8.03
2022-08-11T23:12:14.463Z,6.57
2022-08-11T23:15:37.526Z,6.63
2022-08-11T23:19:03.062Z,5.43
2022-08-11T23:22:49.625Z,7.13
2022-08-11T23:26:13.364Z,4.90
2022-08-11T23:29:37.516Z,5.90
2022-08-11T23:33:03.598Z,5.47
2022-08-11T23:36:46.740Z,5.13
2022-08-11T23:40:10.843Z,6.93
2022-08-11T23:43:39.058Z,3.73
2022-08-11T23:47:03.094Z,4.10
2022-08-11T23:50:27.238Z,4.33
2022-08-11T23:53:49.234Z,4.47
2022-08-11T23:57:14.475Z,4.27
